createdAt,value
2023-04-16T00:00:03.028Z,482.00
2023-04-16T00:00:33.113Z,479.00
2023-04-16T00:01:03.231Z,480.00
2023-04-16T00:01:33.298Z,480.00
2023-04-16T00:02:03.430Z,478.00
2023-04-16T00:02:33.489Z,478.00
2023-04-16T00:03:03.639Z,474.00
2023-04-16T00:03:33.921Z,470.00
2023-04-16T00:04:03.861Z,473.00
2023-04-16T00:04:33.741Z,470.00
2023-04-16T00:05:03.816Z,476.00
2023-04-16T00:06:03.735Z,478.00
2023-04-16T00:06:33.796Z,479.00
2023-04-16T00:07:03.877Z,481.00
2023-04-16T00:07:33.985Z,475.00
2023-04-16T00:08:04.046Z,476.00
2023-04-16T00:08:34.134Z,475.00
2023-04-16T00:09:04.219Z,473.00
2023-04-16T00:09:34.314Z,477.00
2023-04-16T00:10:04.317Z,479.00
2023-04-16T00:10:34.421Z,475.00
2023-04-16T00:11:04.428Z,474.00
2023-04-16T00:11:34.442Z,474.00
2023-04-16T00:12:04.447Z,473.00
2023-04-16T00:12:34.446Z,475.00
2023-04-16T00:13:04.453Z,475.00
2023-04-16T00:13:34.452Z,477.00
2023-04-16T00:14:04.462Z,475.00
2023-04-16T00:14:34.481Z,476.00
2023-04-16T00:15:04.478Z,475.00
2023-04-16T00:15:34.477Z,488.00
2023-04-16T00:16:04.480Z,485.00
2023-04-16T00:16:34.574Z,483.00
2023-04-16T00:17:04.620Z,482.00
2023-04-16T00:17:34.595Z,479.00
2023-04-16T00:18:04.583Z,479.00
2023-04-16T00:18:34.600Z,478.00
2023-04-16T00:19:04.599Z,479.00
2023-04-16T00:19:34.627Z,479.00
2023-04-16T00:20:04.632Z,476.00
2023-04-16T00:20:34.644Z,477.00
2023-04-16T00:21:04.640Z,478.00
2023-04-16T00:21:34.657Z,477.00
2023-04-16T00:22:04.667Z,478.00
2023-04-16T00:22:34.676Z,479.00
2023-04-16T00:23:04.698Z,479.00
2023-04-16T00:23:34.682Z,481.00
2023-04-16T00:24:34.773Z,482.00
2023-04-16T00:25:04.783Z,482.00
2023-04-16T00:25:34.789Z,482.00
2023-04-16T00:26:04.793Z,480.00
2023-04-16T00:26:34.823Z,480.00
2023-04-16T00:27:04.892Z,480.00
2023-04-16T00:27:34.892Z,481.00
2023-04-16T00:28:04.889Z,482.00
2023-04-16T00:28:34.895Z,480.00
2023-04-16T00:29:04.897Z,478.00
2023-04-16T00:29:34.898Z,477.00
2023-04-16T00:30:04.913Z,477.00
2023-04-16T00:30:34.944Z,476.00
2023-04-16T00:31:04.991Z,477.00
2023-04-16T00:31:35.037Z,476.00
2023-04-16T00:32:05.097Z,476.00
2023-04-16T00:32:35.133Z,479.00
2023-04-16T00:33:05.152Z,481.00
2023-04-16T00:33:35.160Z,483.00
2023-04-16T00:34:05.166Z,483.00
2023-04-16T00:34:35.179Z,478.00
2023-04-16T00:35:05.189Z,480.00
2023-04-16T00:35:35.184Z,474.00
2023-04-16T00:36:05.190Z,479.00
2023-04-16T00:36:35.208Z,480.00
2023-04-16T00:37:05.300Z,479.00
2023-04-16T00:37:35.286Z,479.00
2023-04-16T00:38:05.281Z,476.00
2023-04-16T00:38:35.332Z,478.00
2023-04-16T00:39:05.321Z,481.00
2023-04-16T00:40:05.422Z,483.00
2023-04-16T00:40:35.415Z,483.00
2023-04-16T00:41:05.441Z,484.00
2023-04-16T00:41:35.430Z,484.00
2023-04-16T00:42:05.442Z,483.00
2023-04-16T00:42:35.463Z,484.00
2023-04-16T00:43:05.458Z,483.00
2023-04-16T00:43:35.466Z,483.00
2023-04-16T00:44:05.483Z,483.00
2023-04-16T00:44:35.479Z,481.00
2023-04-16T00:45:05.485Z,480.00
2023-04-16T00:45:35.491Z,480.00
2023-04-16T00:46:05.579Z,478.00
2023-04-16T00:46:35.616Z,479.00
2023-04-16T00:47:05.617Z,479.00
2023-04-16T00:47:35.646Z,480.00
2023-04-16T00:48:05.627Z,478.00
2023-04-16T00:48:35.642Z,478.00
2023-04-16T00:49:05.636Z,476.00
2023-04-16T00:49:35.652Z,475.00
2023-04-16T00:50:05.657Z,472.00
2023-04-16T00:50:35.682Z,474.00
2023-04-16T00:51:05.666Z,472.00
2023-04-16T00:51:35.668Z,473.00
2023-04-16T00:52:05.698Z,475.00
2023-04-16T00:52:35.689Z,471.00
2023-04-16T00:53:05.695Z,470.00
2023-04-16T00:53:35.699Z,471.00
2023-04-16T00:54:05.721Z,471.00
2023-04-16T00:54:35.728Z,472.00
2023-04-16T00:55:35.802Z,476.00
2023-04-16T00:56:05.823Z,477.00
2023-04-16T00:56:35.806Z,475.00
2023-04-16T00:57:05.827Z,475.00
2023-04-16T00:57:35.830Z,475.00
2023-04-16T00:58:05.841Z,473.00
2023-04-16T00:58:35.841Z,473.00
2023-04-16T00:59:05.836Z,477.00
2023-04-16T00:59:35.831Z,477.00
2023-04-16T01:00:05.932Z,475.00
2023-04-16T01:00:36.017Z,477.00
2023-04-16T01:01:06.145Z,474.00
2023-04-16T01:01:36.329Z,473.00
2023-04-16T01:02:06.400Z,472.00
2023-04-16T01:02:36.401Z,474.00
2023-04-16T01:03:06.496Z,475.00
2023-04-16T01:03:36.545Z,474.00
2023-04-16T01:04:06.547Z,474.00
2023-04-16T01:04:36.690Z,473.00
2023-04-16T01:05:06.530Z,474.00
2023-04-16T01:05:36.603Z,473.00
2023-04-16T01:06:06.696Z,472.00
2023-04-16T01:06:36.807Z,474.00
2023-04-16T01:07:06.886Z,474.00
2023-04-16T01:07:36.985Z,476.00
2023-04-16T01:08:07.067Z,476.00
2023-04-16T01:08:37.159Z,476.00
2023-04-16T01:09:07.372Z,475.00
2023-04-16T01:09:37.322Z,475.00
2023-04-16T01:10:07.302Z,474.00
2023-04-16T01:11:07.408Z,476.00
2023-04-16T01:11:37.424Z,476.00
2023-04-16T01:12:07.426Z,471.00
2023-04-16T01:12:37.429Z,473.00
2023-04-16T01:13:07.438Z,475.00
2023-04-16T01:13:37.456Z,474.00
2023-04-16T01:14:07.457Z,478.00
2023-04-16T01:14:37.455Z,476.00
2023-04-16T01:15:07.468Z,474.00
2023-04-16T01:15:37.508Z,475.00
2023-04-16T01:16:07.575Z,474.00
2023-04-16T01:16:37.597Z,474.00
2023-04-16T01:17:07.624Z,478.00
2023-04-16T01:17:37.666Z,477.00
2023-04-16T01:18:07.677Z,476.00
2023-04-16T01:18:37.707Z,477.00
2023-04-16T01:19:07.946Z,478.00
2023-04-16T01:19:37.721Z,480.00
2023-04-16T01:20:07.722Z,478.00
2023-04-16T01:20:37.738Z,477.00
2023-04-16T01:21:07.746Z,476.00
2023-04-16T01:21:37.763Z,476.00
2023-04-16T01:22:07.768Z,477.00
2023-04-16T01:22:37.779Z,478.00
2023-04-16T01:23:07.784Z,480.00
2023-04-16T01:23:37.804Z,479.00
2023-04-16T01:24:07.802Z,478.00
2023-04-16T01:24:37.809Z,477.00
2023-04-16T01:25:07.857Z,480.00
2023-04-16T01:25:37.854Z,480.00
2023-04-16T01:26:37.944Z,477.00
2023-04-16T01:27:07.952Z,477.00
2023-04-16T01:28:08.028Z,476.00
2023-04-16T01:28:38.041Z,479.00
2023-04-16T01:29:08.302Z,476.00
2023-04-16T01:29:38.113Z,478.00
2023-04-16T01:30:08.119Z,475.00
2023-04-16T01:30:38.149Z,476.00
2023-04-16T01:31:08.162Z,467.00
2023-04-16T01:31:38.290Z,470.00
2023-04-16T01:32:08.277Z,473.00
2023-04-16T01:32:38.299Z,472.00
2023-04-16T01:33:08.291Z,472.00
2023-04-16T01:33:38.298Z,471.00
2023-04-16T01:34:08.307Z,469.00
2023-04-16T01:34:38.305Z,469.00
2023-04-16T01:35:08.311Z,468.00
2023-04-16T01:35:38.326Z,468.00
2023-04-16T01:36:08.347Z,468.00
2023-04-16T01:36:38.418Z,470.00
2023-04-16T01:37:08.427Z,472.00
2023-04-16T01:37:38.444Z,471.00
2023-04-16T01:38:08.447Z,471.00
2023-04-16T01:38:38.467Z,470.00
2023-04-16T01:39:08.791Z,471.00
2023-04-16T01:39:38.546Z,469.00
2023-04-16T01:40:08.547Z,468.00
2023-04-16T01:40:38.574Z,468.00
2023-04-16T01:41:08.557Z,471.00
2023-04-16T01:41:38.589Z,470.00
2023-04-16T01:42:08.592Z,468.00
2023-04-16T01:43:08.680Z,471.00
2023-04-16T01:43:40.319Z,471.00
2023-04-16T01:44:08.749Z,470.00
2023-04-16T01:44:38.752Z,472.00
2023-04-16T01:45:08.755Z,473.00
2023-04-16T01:45:38.758Z,472.00
2023-04-16T01:46:08.852Z,472.00
2023-04-16T01:46:38.869Z,472.00
2023-04-16T01:47:08.882Z,473.00
2023-04-16T01:47:38.948Z,468.00
2023-04-16T01:48:08.939Z,471.00
2023-04-16T01:48:38.939Z,471.00
2023-04-16T01:49:09.102Z,471.00
2023-04-16T01:49:38.987Z,473.00
2023-04-16T01:50:08.997Z,473.00
2023-04-16T01:50:39.014Z,473.00
2023-04-16T01:51:09.013Z,474.00
2023-04-16T01:51:39.034Z,472.00
2023-04-16T01:52:09.042Z,472.00
2023-04-16T01:52:39.042Z,474.00
2023-04-16T01:53:09.053Z,474.00
2023-04-16T01:53:39.051Z,474.00
2023-04-16T01:54:39.138Z,473.00
2023-04-16T01:55:09.154Z,473.00
2023-04-16T01:55:39.158Z,472.00
2023-04-16T01:56:09.178Z,470.00
2023-04-16T01:56:39.174Z,473.00
2023-04-16T01:57:09.190Z,472.00
2023-04-16T01:57:39.193Z,473.00
2023-04-16T01:58:09.204Z,473.00
2023-04-16T01:58:39.202Z,473.00
2023-04-16T01:59:09.573Z,473.00
2023-04-16T01:59:39.310Z,471.00
2023-04-16T02:00:09.403Z,471.00
2023-04-16T02:00:39.558Z,470.00
2023-04-16T02:01:09.617Z,471.00
2023-04-16T02:01:39.610Z,468.00
2023-04-16T02:02:09.755Z,467.00
2023-04-16T02:02:39.849Z,466.00
2023-04-16T02:03:09.927Z,465.00
2023-04-16T02:03:40.107Z,463.00
2023-04-16T02:04:10.034Z,464.00
2023-04-16T02:04:40.029Z,466.00
2023-04-16T02:05:10.109Z,469.00
2023-04-16T02:05:40.192Z,470.00
2023-04-16T02:06:10.272Z,469.00
2023-04-16T02:06:40.366Z,471.00
2023-04-16T02:07:10.447Z,473.00
2023-04-16T02:07:40.541Z,471.00
2023-04-16T02:08:10.629Z,470.00
2023-04-16T02:08:40.702Z,469.00
2023-04-16T02:09:10.968Z,471.00
2023-04-16T02:09:40.810Z,471.00
2023-04-16T02:10:10.836Z,472.00
2023-04-16T02:10:40.855Z,471.00
2023-04-16T02:11:10.881Z,472.00
2023-04-16T02:11:40.877Z,473.00
2023-04-16T02:12:10.910Z,474.00
2023-04-16T02:12:40.950Z,471.00
2023-04-16T02:13:10.961Z,470.00
2023-04-16T02:13:40.985Z,469.00
2023-04-16T02:14:10.973Z,466.00
2023-04-16T02:15:11.060Z,465.00
2023-04-16T02:15:41.068Z,467.00
2023-04-16T02:16:11.082Z,466.00
2023-04-16T02:16:41.157Z,466.00
2023-04-16T02:17:11.156Z,466.00
2023-04-16T02:17:41.235Z,465.00
2023-04-16T02:18:11.239Z,465.00
2023-04-16T02:18:41.237Z,463.00
2023-04-16T02:19:41.320Z,464.00
2023-04-16T02:20:11.333Z,463.00
2023-04-16T02:20:41.333Z,463.00
2023-04-16T02:21:11.337Z,467.00
2023-04-16T02:21:41.345Z,466.00
2023-04-16T02:22:11.354Z,468.00
2023-04-16T02:22:41.357Z,466.00
2023-04-16T02:23:11.368Z,468.00
2023-04-16T02:23:41.371Z,468.00
2023-04-16T02:24:11.380Z,467.00
2023-04-16T02:24:41.381Z,467.00
2023-04-16T02:25:11.403Z,464.00
2023-04-16T02:25:41.403Z,466.00
2023-04-16T02:26:11.413Z,462.00
2023-04-16T02:26:41.461Z,466.00
2023-04-16T02:27:11.447Z,469.00
2023-04-16T02:28:11.544Z,467.00
2023-04-16T02:28:41.548Z,465.00
2023-04-16T02:29:11.806Z,465.00
2023-04-16T02:29:41.560Z,466.00
2023-04-16T02:30:11.563Z,467.00
2023-04-16T02:30:41.583Z,468.00
2023-04-16T02:31:11.592Z,468.00
2023-04-16T02:31:41.628Z,466.00
2023-04-16T02:32:11.704Z,466.00
2023-04-16T02:32:41.756Z,465.00
2023-04-16T02:33:11.786Z,464.00
2023-04-16T02:33:41.792Z,463.00
2023-04-16T02:34:11.806Z,464.00
2023-04-16T02:35:11.884Z,464.00
2023-04-16T02:35:41.893Z,463.00
2023-04-16T02:36:11.898Z,467.00
2023-04-16T02:36:41.920Z,466.00
2023-04-16T02:37:11.906Z,467.00
2023-04-16T02:37:41.910Z,468.00
2023-04-16T02:38:11.909Z,469.00
2023-04-16T02:38:41.921Z,468.00
2023-04-16T02:39:11.910Z,468.00
2023-04-16T02:39:41.917Z,469.00
2023-04-16T02:40:11.939Z,468.00
2023-04-16T02:40:41.948Z,467.00
2023-04-16T02:41:11.950Z,466.00
2023-04-16T02:41:41.973Z,467.00
2023-04-16T02:42:11.995Z,468.00
2023-04-16T02:42:41.981Z,470.00
2023-04-16T02:43:42.087Z,471.00
2023-04-16T02:44:12.070Z,466.00
2023-04-16T02:44:42.087Z,465.00
2023-04-16T02:45:12.087Z,464.00
2023-04-16T02:45:42.137Z,466.00
2023-04-16T02:46:12.152Z,467.00
2023-04-16T02:46:42.198Z,469.00
2023-04-16T02:47:12.267Z,468.00
2023-04-16T02:47:42.372Z,469.00
2023-04-16T02:48:12.358Z,471.00
2023-04-16T02:48:42.368Z,469.00
2023-04-16T02:49:12.373Z,468.00
2023-04-16T02:49:42.388Z,466.00
2023-04-16T02:50:12.416Z,466.00
2023-04-16T02:50:42.400Z,470.00
2023-04-16T02:51:12.410Z,468.00
2023-04-16T02:51:42.433Z,471.00
2023-04-16T02:52:14.372Z,468.00
2023-04-16T02:52:42.514Z,468.00
2023-04-16T02:53:12.535Z,467.00
2023-04-16T02:54:12.602Z,467.00
2023-04-16T02:54:42.617Z,466.00
2023-04-16T02:55:12.629Z,466.00
2023-04-16T02:55:42.626Z,466.00
2023-04-16T02:56:12.635Z,466.00
2023-04-16T02:56:42.661Z,466.00
2023-04-16T02:57:12.665Z,463.00
2023-04-16T02:57:42.786Z,470.00
2023-04-16T02:58:12.765Z,471.00
2023-04-16T02:58:42.790Z,467.00
2023-04-16T02:59:12.800Z,473.00
2023-04-16T02:59:42.912Z,470.00
2023-04-16T03:00:12.994Z,471.00
2023-04-16T03:00:43.072Z,470.00
2023-04-16T03:01:13.188Z,465.00
2023-04-16T03:01:43.186Z,467.00
2023-04-16T03:02:13.277Z,464.00
2023-04-16T03:02:43.433Z,463.00
2023-04-16T03:03:13.516Z,463.00
2023-04-16T03:03:43.414Z,467.00
2023-04-16T03:04:13.605Z,467.00
2023-04-16T03:04:43.767Z,466.00
2023-04-16T03:05:13.611Z,464.00
2023-04-16T03:05:43.687Z,466.00
2023-04-16T03:06:13.780Z,469.00
2023-04-16T03:06:43.890Z,471.00
2023-04-16T03:07:13.982Z,471.00
2023-04-16T03:07:44.061Z,470.00
2023-04-16T03:08:14.145Z,467.00
2023-04-16T03:08:44.228Z,476.00
2023-04-16T03:09:14.317Z,474.00
2023-04-16T03:09:44.419Z,469.00
2023-04-16T03:10:14.429Z,468.00
2023-04-16T03:10:44.444Z,470.00
2023-04-16T03:11:14.443Z,469.00
2023-04-16T03:11:44.490Z,467.00
2023-04-16T03:12:14.486Z,467.00
2023-04-16T03:12:44.499Z,468.00
2023-04-16T03:13:14.525Z,466.00
2023-04-16T03:13:44.519Z,465.00
2023-04-16T03:14:44.617Z,467.00
2023-04-16T03:15:14.615Z,466.00
2023-04-16T03:15:44.676Z,466.00
2023-04-16T03:16:14.779Z,468.00
2023-04-16T03:16:44.751Z,469.00
2023-04-16T03:17:14.753Z,471.00
2023-04-16T03:17:44.886Z,471.00
2023-04-16T03:18:14.764Z,469.00
2023-04-16T03:18:44.766Z,470.00
2023-04-16T03:19:14.791Z,470.00
2023-04-16T03:19:44.790Z,464.00
2023-04-16T03:20:14.801Z,463.00
2023-04-16T03:20:44.796Z,463.00
2023-04-16T03:21:14.815Z,465.00
2023-04-16T03:21:44.840Z,465.00
2023-04-16T03:22:14.856Z,466.00
2023-04-16T03:22:44.848Z,466.00
2023-04-16T03:23:14.846Z,463.00
2023-04-16T03:23:44.859Z,458.00
2023-04-16T03:24:14.861Z,461.00
2023-04-16T03:24:44.879Z,463.00
2023-04-16T03:25:14.878Z,470.00
2023-04-16T03:25:44.881Z,457.00
2023-04-16T03:26:14.892Z,461.00
2023-04-16T03:26:44.917Z,460.00
2023-04-16T03:27:14.921Z,462.00
2023-04-16T03:27:44.927Z,472.00
2023-04-16T03:28:45.028Z,464.00
2023-04-16T03:29:15.023Z,465.00
2023-04-16T03:30:15.103Z,468.00
2023-04-16T03:30:45.118Z,466.00
2023-04-16T03:31:15.160Z,465.00
2023-04-16T03:31:45.167Z,465.00
2023-04-16T03:32:15.161Z,462.00
2023-04-16T03:32:45.211Z,461.00
2023-04-16T03:33:15.242Z,464.00
2023-04-16T03:33:45.250Z,466.00
2023-04-16T03:34:15.254Z,465.00
2023-04-16T03:34:45.266Z,460.00
2023-04-16T03:35:15.263Z,462.00
2023-04-16T03:35:45.268Z,462.00
2023-04-16T03:36:15.288Z,462.00
2023-04-16T03:36:45.289Z,462.00
2023-04-16T03:37:15.300Z,463.00
2023-04-16T03:37:45.302Z,464.00
2023-04-16T03:38:45.394Z,464.00
2023-04-16T03:39:15.413Z,460.00
2023-04-16T03:39:45.415Z,459.00
2023-04-16T03:40:15.416Z,457.00
2023-04-16T03:40:45.421Z,459.00
2023-04-16T03:41:15.442Z,455.00
2023-04-16T03:41:45.451Z,453.00
2023-04-16T03:42:15.453Z,454.00
2023-04-16T03:42:45.467Z,456.00
2023-04-16T03:43:15.467Z,457.00
2023-04-16T03:43:45.481Z,460.00
2023-04-16T03:44:15.516Z,460.00
2023-04-16T03:44:45.494Z,459.00
2023-04-16T03:45:45.592Z,456.00
2023-04-16T03:46:15.606Z,458.00
2023-04-16T03:46:45.699Z,458.00
2023-04-16T03:47:15.613Z,462.00
2023-04-16T03:47:45.674Z,464.00
2023-04-16T03:48:15.693Z,463.00
2023-04-16T03:48:45.705Z,466.00
2023-04-16T03:49:15.707Z,461.00
2023-04-16T03:49:45.718Z,464.00
2023-04-16T03:50:15.717Z,463.00
2023-04-16T03:50:45.726Z,462.00
2023-04-16T03:51:15.728Z,460.00
2023-04-16T03:51:45.748Z,461.00
2023-04-16T03:52:15.746Z,461.00
2023-04-16T03:52:45.754Z,463.00
2023-04-16T03:53:15.762Z,463.00
2023-04-16T03:53:45.774Z,463.00
2023-04-16T03:54:15.780Z,463.00
2023-04-16T03:54:45.790Z,462.00
2023-04-16T03:55:15.788Z,464.00
2023-04-16T03:55:45.795Z,464.00
2023-04-16T03:56:15.806Z,464.00
2023-04-16T03:56:45.827Z,461.00
2023-04-16T03:57:15.861Z,461.00
2023-04-16T03:57:45.836Z,461.00
2023-04-16T03:58:45.927Z,462.00
2023-04-16T03:59:15.935Z,463.00
2023-04-16T03:59:46.061Z,464.00
2023-04-16T04:00:16.123Z,465.00
2023-04-16T04:00:46.202Z,464.00
2023-04-16T04:01:16.295Z,464.00
2023-04-16T04:01:46.428Z,464.00
2023-04-16T04:02:16.504Z,464.00
2023-04-16T04:02:46.630Z,466.00
2023-04-16T04:03:16.828Z,468.00
2023-04-16T04:03:46.863Z,466.00
2023-04-16T04:04:16.710Z,468.00
2023-04-16T04:04:46.758Z,466.00
2023-04-16T04:05:16.776Z,464.00
2023-04-16T04:05:46.865Z,464.00
2023-04-16T04:06:16.945Z,464.00
2023-04-16T04:06:47.043Z,464.00
2023-04-16T04:07:17.120Z,465.00
2023-04-16T04:07:47.199Z,464.00
2023-04-16T04:08:17.278Z,465.00
2023-04-16T04:08:47.378Z,463.00
2023-04-16T04:09:17.460Z,464.00
2023-04-16T04:09:47.476Z,468.00
2023-04-16T04:10:17.473Z,468.00
2023-04-16T04:10:47.469Z,465.00
2023-04-16T04:11:17.513Z,464.00
2023-04-16T04:11:47.509Z,466.00
2023-04-16T04:12:17.619Z,467.00
2023-04-16T04:12:47.632Z,465.00
2023-04-16T04:13:17.634Z,471.00
2023-04-16T04:13:47.652Z,472.00
2023-04-16T04:14:17.655Z,470.00
2023-04-16T04:14:47.660Z,468.00
2023-04-16T04:15:17.692Z,471.00
2023-04-16T04:15:47.730Z,467.00
2023-04-16T04:16:17.801Z,468.00
2023-04-16T04:16:47.920Z,468.00
2023-04-16T04:17:17.852Z,469.00
2023-04-16T04:17:47.886Z,466.00
2023-04-16T04:18:17.899Z,466.00
2023-04-16T04:18:47.902Z,469.00
2023-04-16T04:19:17.951Z,470.00
2023-04-16T04:20:00.502Z,470.00
2023-04-16T04:20:17.939Z,469.00
2023-04-16T04:21:17.955Z,470.00
2023-04-16T04:21:47.984Z,469.00
2023-04-16T04:22:18.000Z,470.00
2023-04-16T04:22:47.982Z,471.00
2023-04-16T04:23:17.988Z,470.00
2023-04-16T04:23:47.990Z,468.00
2023-04-16T04:24:17.999Z,466.00
2023-04-16T04:24:48.001Z,467.00
2023-04-16T04:25:17.997Z,466.00
2023-04-16T04:25:48.046Z,468.00
2023-04-16T04:26:18.141Z,470.00
2023-04-16T04:26:48.139Z,467.00
2023-04-16T04:27:18.154Z,465.00
2023-04-16T04:27:48.152Z,465.00
2023-04-16T04:28:18.161Z,463.00
2023-04-16T04:28:48.166Z,463.00
2023-04-16T04:29:18.174Z,463.00
2023-04-16T04:29:48.176Z,467.00
2023-04-16T04:30:18.183Z,461.00
2023-04-16T04:30:48.208Z,463.00
2023-04-16T04:31:18.234Z,465.00
2023-04-16T04:31:48.269Z,465.00
2023-04-16T04:32:18.389Z,465.00
2023-04-16T04:32:48.439Z,463.00
2023-04-16T04:33:18.511Z,464.00
2023-04-16T04:33:48.544Z,464.00
2023-04-16T04:34:18.563Z,464.00
2023-04-16T04:34:48.559Z,464.00
2023-04-16T04:35:18.562Z,466.00
2023-04-16T04:35:48.561Z,465.00
2023-04-16T04:36:18.577Z,464.00
2023-04-16T04:36:48.585Z,464.00
2023-04-16T04:37:18.607Z,463.00
2023-04-16T04:37:48.597Z,463.00
2023-04-16T04:38:48.686Z,464.00
2023-04-16T04:39:18.699Z,465.00
2023-04-16T04:39:48.711Z,464.00
2023-04-16T04:40:18.723Z,465.00
2023-04-16T04:40:48.712Z,464.00
2023-04-16T04:41:18.736Z,466.00
2023-04-16T04:41:48.724Z,467.00
2023-04-16T04:42:18.734Z,466.00
2023-04-16T04:42:48.760Z,467.00
2023-04-16T04:43:18.746Z,467.00
2023-04-16T04:43:48.751Z,466.00
2023-04-16T04:44:18.752Z,464.00
2023-04-16T04:44:48.758Z,459.00
2023-04-16T04:45:18.763Z,458.00
2023-04-16T04:45:48.785Z,459.00
2023-04-16T04:46:18.911Z,456.00
2023-04-16T04:46:48.887Z,458.00
2023-04-16T04:47:18.926Z,462.00
2023-04-16T04:47:48.976Z,465.00
2023-04-16T04:48:18.946Z,461.00
2023-04-16T04:48:48.934Z,463.00
2023-04-16T04:49:18.926Z,464.00
2023-04-16T04:49:48.935Z,463.00
2023-04-16T04:50:18.960Z,463.00
2023-04-16T04:50:48.976Z,465.00
2023-04-16T04:51:18.985Z,464.00
2023-04-16T04:51:48.985Z,463.00
2023-04-16T04:52:19.007Z,464.00
2023-04-16T04:52:48.993Z,464.00
2023-04-16T04:53:19.005Z,464.00
2023-04-16T04:53:49.007Z,465.00
2023-04-16T04:54:19.021Z,463.00
2023-04-16T04:54:49.026Z,465.00
2023-04-16T04:55:19.045Z,462.00
2023-04-16T04:55:52.344Z,462.00
2023-04-16T04:56:19.173Z,461.00
2023-04-16T04:56:49.175Z,464.00
2023-04-16T04:57:19.193Z,463.00
2023-04-16T04:57:49.197Z,462.00
2023-04-16T04:58:19.215Z,461.00
2023-04-16T04:58:49.212Z,463.00
2023-04-16T04:59:19.259Z,460.00
2023-04-16T04:59:49.370Z,460.00
2023-04-16T05:00:19.441Z,462.00
2023-04-16T05:00:49.567Z,460.00
2023-04-16T05:01:19.558Z,463.00
2023-04-16T05:01:49.618Z,462.00
2023-04-16T05:02:19.693Z,463.00
2023-04-16T05:02:49.900Z,462.00
2023-04-16T05:03:19.770Z,463.00
2023-04-16T05:03:49.843Z,465.00
2023-04-16T05:04:19.888Z,465.00
2023-04-16T05:04:49.876Z,466.00
2023-04-16T05:05:20.003Z,463.00
2023-04-16T05:05:50.015Z,469.00
2023-04-16T05:06:20.090Z,471.00
2023-04-16T05:06:50.179Z,471.00
2023-04-16T05:07:20.271Z,469.00
2023-04-16T05:07:50.348Z,466.00
2023-04-16T05:08:20.425Z,466.00
2023-04-16T05:08:50.513Z,465.00
2023-04-16T05:09:20.597Z,463.00
2023-04-16T05:09:50.603Z,464.00
2023-04-16T05:10:20.607Z,464.00
2023-04-16T05:10:50.694Z,464.00
2023-04-16T05:11:20.706Z,466.00
2023-04-16T05:11:50.715Z,466.00
2023-04-16T05:12:20.725Z,462.00
2023-04-16T05:12:50.731Z,463.00
2023-04-16T05:13:50.830Z,461.00
2023-04-16T05:14:20.846Z,462.00
2023-04-16T05:14:50.860Z,460.00
2023-04-16T05:15:20.850Z,461.00
2023-04-16T05:15:50.867Z,462.00
2023-04-16T05:16:20.919Z,463.00
2023-04-16T05:16:51.046Z,465.00
2023-04-16T05:17:21.077Z,464.00
2023-04-16T05:17:51.125Z,464.00
2023-04-16T05:18:21.116Z,465.00
2023-04-16T05:18:51.129Z,463.00
2023-04-16T05:19:21.129Z,463.00
2023-04-16T05:19:51.145Z,465.00
2023-04-16T05:20:21.136Z,466.00
2023-04-16T05:20:51.153Z,465.00
2023-04-16T05:21:21.156Z,469.00
2023-04-16T05:21:51.154Z,468.00
2023-04-16T05:22:21.197Z,467.00
2023-04-16T05:22:51.208Z,465.00
2023-04-16T05:23:21.209Z,466.00
2023-04-16T05:23:51.209Z,467.00
2023-04-16T05:24:21.218Z,467.00
2023-04-16T05:24:51.238Z,466.00
2023-04-16T05:25:21.246Z,465.00
2023-04-16T05:25:51.260Z,465.00
2023-04-16T05:26:21.257Z,465.00
2023-04-16T05:26:51.300Z,465.00
2023-04-16T05:27:21.329Z,467.00
2023-04-16T05:27:51.342Z,470.00
2023-04-16T05:28:21.334Z,468.00
2023-04-16T05:28:51.353Z,468.00
2023-04-16T05:29:21.356Z,469.00
2023-04-16T05:29:51.377Z,471.00
2023-04-16T05:30:21.382Z,471.00
2023-04-16T05:30:51.466Z,470.00
2023-04-16T05:31:21.523Z,471.00
2023-04-16T05:31:51.569Z,470.00
2023-04-16T05:32:21.598Z,467.00
2023-04-16T05:32:51.718Z,469.00
2023-04-16T05:33:21.742Z,472.00
2023-04-16T05:33:51.733Z,469.00
2023-04-16T05:34:21.745Z,467.00
2023-04-16T05:34:51.749Z,471.00
2023-04-16T05:35:21.763Z,472.00
2023-04-16T05:35:51.766Z,474.00
2023-04-16T05:36:21.762Z,472.00
2023-04-16T05:37:21.853Z,472.00
2023-04-16T05:37:51.872Z,472.00
2023-04-16T05:38:21.884Z,470.00
2023-04-16T05:38:51.938Z,470.00
2023-04-16T05:39:21.935Z,468.00
2023-04-16T05:39:51.940Z,469.00
2023-04-16T05:40:21.946Z,471.00
2023-04-16T05:40:51.956Z,472.00
2023-04-16T05:41:21.969Z,473.00
2023-04-16T05:41:51.970Z,469.00
2023-04-16T05:42:22.005Z,469.00
2023-04-16T05:42:51.985Z,468.00
2023-04-16T05:43:21.989Z,466.00
2023-04-16T05:43:52.043Z,464.00
2023-04-16T05:44:22.017Z,465.00
2023-04-16T05:44:52.035Z,467.00
2023-04-16T05:45:22.036Z,466.00
2023-04-16T05:45:52.065Z,466.00
2023-04-16T05:46:22.121Z,465.00
2023-04-16T05:46:52.169Z,465.00
2023-04-16T05:47:22.252Z,464.00
2023-04-16T05:47:52.273Z,466.00
2023-04-16T05:48:22.332Z,467.00
2023-04-16T05:48:52.317Z,467.00
2023-04-16T05:49:52.372Z,468.00
2023-04-16T05:50:22.396Z,468.00
2023-04-16T05:50:52.420Z,468.00
2023-04-16T05:51:22.417Z,467.00
2023-04-16T05:51:52.484Z,467.00
2023-04-16T05:52:22.479Z,467.00
2023-04-16T05:53:22.564Z,466.00
2023-04-16T05:53:52.597Z,466.00
2023-04-16T05:54:22.589Z,465.00
2023-04-16T05:55:22.676Z,466.00
2023-04-16T05:55:52.685Z,466.00
2023-04-16T05:56:22.686Z,467.00
2023-04-16T05:56:52.698Z,467.00
2023-04-16T05:57:22.706Z,468.00
2023-04-16T05:57:52.701Z,467.00
2023-04-16T05:58:22.718Z,467.00
2023-04-16T05:58:52.715Z,468.00
2023-04-16T05:59:22.727Z,469.00
2023-04-16T05:59:52.816Z,468.00
2023-04-16T06:00:22.894Z,469.00
2023-04-16T06:00:52.983Z,469.00
2023-04-16T06:01:23.068Z,467.00
2023-04-16T06:01:53.195Z,467.00
2023-04-16T06:02:23.404Z,468.00
2023-04-16T06:02:53.503Z,467.00
2023-04-16T06:03:23.458Z,468.00
2023-04-16T06:03:53.538Z,471.00
2023-04-16T06:04:23.549Z,471.00
2023-04-16T06:04:53.560Z,471.00
2023-04-16T06:05:23.690Z,468.00
2023-04-16T06:05:53.796Z,470.00
2023-04-16T06:06:23.800Z,470.00
2023-04-16T06:06:53.880Z,469.00
2023-04-16T06:07:23.971Z,466.00
2023-04-16T06:07:54.058Z,464.00
2023-04-16T06:08:24.167Z,466.00
2023-04-16T06:08:54.245Z,466.00
2023-04-16T06:09:24.327Z,465.00
2023-04-16T06:09:54.354Z,464.00
2023-04-16T06:10:24.344Z,464.00
2023-04-16T06:10:54.366Z,466.00
2023-04-16T06:11:24.367Z,463.00
2023-04-16T06:11:54.367Z,464.00
2023-04-16T06:12:24.397Z,466.00
2023-04-16T06:12:54.398Z,466.00
2023-04-16T06:13:24.407Z,465.00
2023-04-16T06:13:54.405Z,462.00
2023-04-16T06:14:24.416Z,463.00
2023-04-16T06:14:54.414Z,468.00
2023-04-16T06:15:24.424Z,468.00
2023-04-16T06:15:54.499Z,469.00
2023-04-16T06:16:24.526Z,468.00
2023-04-16T06:16:54.558Z,470.00
2023-04-16T06:17:24.645Z,471.00
2023-04-16T06:17:54.788Z,471.00
2023-04-16T06:18:24.783Z,469.00
2023-04-16T06:18:54.781Z,468.00
2023-04-16T06:19:24.810Z,469.00
2023-04-16T06:19:54.791Z,469.00
2023-04-16T06:20:54.806Z,470.00
2023-04-16T06:21:24.816Z,469.00
2023-04-16T06:21:54.814Z,467.00
2023-04-16T06:22:24.816Z,465.00
2023-04-16T06:22:54.830Z,463.00
2023-04-16T06:23:24.837Z,464.00
2023-04-16T06:23:54.844Z,466.00
2023-04-16T06:24:24.851Z,472.00
2023-04-16T06:24:54.929Z,472.00
2023-04-16T06:25:24.905Z,471.00
2023-04-16T06:25:54.917Z,470.00
2023-04-16T06:26:24.941Z,468.00
2023-04-16T06:26:54.950Z,466.00
2023-04-16T06:27:24.945Z,466.00
2023-04-16T06:27:54.946Z,468.00
2023-04-16T06:28:24.957Z,468.00
2023-04-16T06:28:54.966Z,468.00